sensor_id;sensor_type;location;lat;lon;timestamp;temperature;humidity
1413;DHT22;701;52.526;13.408;2022-08-18T00:04:30;25.10;14.90
1413;DHT22;701;52.526;13.408;2022-08-18T00:06:56;25.10;15.00
1413;DHT22;701;52.526;13.408;2022-08-18T00:09:22;25.00;15.20
1413;DHT22;701;52.526;13.408;2022-08-18T00:11:48;25.00;15.50
1413;DHT22;701;52.526;13.408;2022-08-18T00:14:18;25.00;15.40
1413;DHT22;701;52.526;13.408;2022-08-18T00:16:44;24.90;15.60
1413;DHT22;701;52.526;13.408;2022-08-18T00:19:10;24.90;15.60
1413;DHT22;701;52.526;13.408;2022-08-18T00:21:36;24.90;15.60
1413;DHT22;701;52.526;13.408;2022-08-18T00:24:03;24.90;15.60
1413;DHT22;701;52.526;13.408;2022-08-18T00:26:28;24.90;15.60
1413;DHT22;701;52.526;13.408;2022-08-18T00:28:54;24.80;15.50
1413;DHT22;701;52.526;13.408;2022-08-18T00:31:20;24.80;15.50
1413;DHT22;701;52.526;13.408;2022-08-18T00:33:45;24.90;15.60
1413;DHT22;701;52.526;13.408;2022-08-18T00:36:11;24.80;15.50
1413;DHT22;701;52.526;13.408;2022-08-18T00:38:37;24.80;15.50
1413;DHT22;701;52.526;13.408;2022-08-18T00:41:05;24.80;15.60
1413;DHT22;701;52.526;13.408;2022-08-18T00:43:41;24.80;15.50
1413;DHT22;701;52.526;13.408;2022-08-18T00:46:09;24.70;15.50
1413;DHT22;701;52.526;13.408;2022-08-18T00:48:36;24.70;15.50
1413;DHT22;701;52.526;13.408;2022-08-18T00:51:16;24.70;15.50
1413;DHT22;701;52.526;13.408;2022-08-18T00:54:06;24.60;15.40
1413;DHT22;701;52.526;13.408;2022-08-18T00:56:44;24.60;15.40
1413;DHT22;701;52.526;13.408;2022-08-18T00:59:27;24.60;15.40
1413;DHT22;701;52.526;13.408;2022-08-18T01:01:55;24.50;15.30
1413;DHT22;701;52.526;13.408;2022-08-18T01:04:42;24.50;15.30
1413;DHT22;701;52.526;13.408;2022-08-18T01:07:15;24.50;15.40
1413;DHT22;701;52.526;13.408;2022-08-18T01:09:49;24.50;15.30
1413;DHT22;701;52.526;13.408;2022-08-18T01:12:17;24.50;15.40
1413;DHT22;701;52.526;13.408;2022-08-18T01:14:43;24.40;15.30
1413;DHT22;701;52.526;13.408;2022-08-18T01:17:09;24.40;15.30
1413;DHT22;701;52.526;13.408;2022-08-18T01:19:54;24.40;15.30
1413;DHT22;701;52.526;13.408;2022-08-18T01:25:13;24.40;15.30
1413;DHT22;701;52.526;13.408;2022-08-18T01:27:57;24.40;15.30
1413;DHT22;701;52.526;13.408;2022-08-18T01:30:27;24.40;15.30
1413;DHT22;701;52.526;13.408;2022-08-18T01:32:53;24.40;15.30
1413;DHT22;701;52.526;13.408;2022-08-18T01:35:20;24.40;15.30
1413;DHT22;701;52.526;13.408;2022-08-18T01:37:47;24.40;14.90
1413;DHT22;701;52.526;13.408;2022-08-18T01:40:15;24.50;14.70
1413;DHT22;701;52.526;13.408;2022-08-18T01:42:42;24.50;14.60
1413;DHT22;701;52.526;13.408;2022-08-18T01:45:15;24.50;14.30
1413;DHT22;701;52.526;13.408;2022-08-18T01:47:41;24.50;14.30
1413;DHT22;701;52.526;13.408;2022-08-18T01:50:08;24.50;14.20
1413;DHT22;701;52.526;13.408;2022-08-18T01:52:37;24.50;14.00
1413;DHT22;701;52.526;13.408;2022-08-18T01:55:04;24.50;14.00
1413;DHT22;701;52.526;13.408;2022-08-18T01:57:34;24.50;13.90
1413;DHT22;701;52.526;13.408;2022-08-18T02:00:00;24.50;14.00
1413;DHT22;701;52.526;13.408;2022-08-18T02:02:28;24.50;14.00
1413;DHT22;701;52.526;13.408;2022-08-18T02:05:02;24.50;13.90
1413;DHT22;701;52.526;13.408;2022-08-18T02:07:28;24.50;14.00
1413;DHT22;701;52.526;13.408;2022-08-18T02:09:54;24.40;13.90
1413;DHT22;701;52.526;13.408;2022-08-18T02:12:20;24.40;14.60
1413;DHT22;701;52.526;13.408;2022-08-18T02:14:45;24.40;14.00
1413;DHT22;701;52.526;13.408;2022-08-18T02:17:12;24.40;14.10
1413;DHT22;701;52.526;13.408;2022-08-18T02:19:44;24.40;14.10
1413;DHT22;701;52.526;13.408;2022-08-18T02:22:14;24.30;14.10
1413;DHT22;701;52.526;13.408;2022-08-18T02:24:40;24.30;14.10
1413;DHT22;701;52.526;13.408;2022-08-18T02:27:07;24.30;14.10
1413;DHT22;701;52.526;13.408;2022-08-18T02:29:33;24.20;14.10
1413;DHT22;701;52.526;13.408;2022-08-18T02:31:59;24.20;14.10
1413;DHT22;701;52.526;13.408;2022-08-18T02:34:25;24.20;14.20
1413;DHT22;701;52.526;13.408;2022-08-18T02:36:51;24.20;14.10
1413;DHT22;701;52.526;13.408;2022-08-18T02:39:17;24.20;14.20
1413;DHT22;701;52.526;13.408;2022-08-18T02:41:43;24.20;14.20
1413;DHT22;701;52.526;13.408;2022-08-18T02:44:09;24.20;14.30
1413;DHT22;701;52.526;13.408;2022-08-18T02:46:35;24.20;14.30
1413;DHT22;701;52.526;13.408;2022-08-18T02:49:02;24.20;14.30
1413;DHT22;701;52.526;13.408;2022-08-18T02:51:29;24.20;14.30
1413;DHT22;701;52.526;13.408;2022-08-18T02:53:56;24.20;14.30
1413;DHT22;701;52.526;13.408;2022-08-18T02:56:27;24.10;14.20
1413;DHT22;701;52.526;13.408;2022-08-18T02:58:58;24.10;14.30
1413;DHT22;701;52.526;13.408;2022-08-18T03:01:30;24.10;14.30
1413;DHT22;701;52.526;13.408;2022-08-18T03:03:58;24.10;14.50
1413;DHT22;701;52.526;13.408;2022-08-18T03:06:25;24.00;14.50
1413;DHT22;701;52.526;13.408;2022-08-18T03:08:51;24.00;14.60
1413;DHT22;701;52.526;13.408;2022-08-18T03:11:22;23.90;15.00
1413;DHT22;701;52.526;13.408;2022-08-18T03:13:48;23.90;14.90
1413;DHT22;701;52.526;13.408;2022-08-18T03:16:15;23.90;14.90
1413;DHT22;701;52.526;13.408;2022-08-18T03:18:42;23.80;14.90
1413;DHT22;701;52.526;13.408;2022-08-18T03:21:10;23.80;15.00
1413;DHT22;701;52.526;13.408;2022-08-18T03:23:36;23.80;14.90
1413;DHT22;701;52.526;13.408;2022-08-18T03:26:06;23.80;14.90
1413;DHT22;701;52.526;13.408;2022-08-18T03:28:32;23.70;14.80
1413;DHT22;701;52.526;13.408;2022-08-18T03:30:59;23.70;14.90
1413;DHT22;701;52.526;13.408;2022-08-18T03:33:24;23.70;15.30
1413;DHT22;701;52.526;13.408;2022-08-18T03:35:50;23.70;15.40
1413;DHT22;701;52.526;13.408;2022-08-18T03:38:16;23.60;15.60
1413;DHT22;701;52.526;13.408;2022-08-18T03:40:42;23.60;15.50
1413;DHT22;701;52.526;13.408;2022-08-18T03:43:08;23.60;15.60
1413;DHT22;701;52.526;13.408;2022-08-18T03:45:34;23.50;15.70
1413;DHT22;701;52.526;13.408;2022-08-18T03:48:00;23.50;15.90
1413;DHT22;701;52.526;13.408;2022-08-18T03:50:27;23.50;16.00
1413;DHT22;701;52.526;13.408;2022-08-18T03:52:54;23.50;16.00
1413;DHT22;701;52.526;13.408;2022-08-18T03:55:25;23.50;16.00
1413;DHT22;701;52.526;13.408;2022-08-18T03:57:52;23.50;16.10
1413;DHT22;701;52.526;13.408;2022-08-18T04:00:19;23.50;16.10
1413;DHT22;701;52.526;13.408;2022-08-18T04:02:46;23.40;16.10
1413;DHT22;701;52.526;13.408;2022-08-18T04:05:12;23.40;16.30
1413;DHT22;701;52.526;13.408;2022-08-18T04:07:39;23.40;16.40
1413;DHT22;701;52.526;13.408;2022-08-18T04:10:05;23.40;16.40
1413;DHT22;701;52.526;13.408;2022-08-18T04:12:31;23.40;16.50
1413;DHT22;701;52.526;13.408;2022-08-18T04:14:57;23.40;16.60
1413;DHT22;701;52.526;13.408;2022-08-18T04:17:22;23.40;16.60
1413;DHT22;701;52.526;13.408;2022-08-18T04:19:53;23.40;16.60
1413;DHT22;701;52.526;13.408;2022-08-18T04:22:19;23.40;16.70
1413;DHT22;701;52.526;13.408;2022-08-18T04:24:45;23.50;16.60
1413;DHT22;701;52.526;13.408;2022-08-18T04:27:11;23.50;16.60
1413;DHT22;701;52.526;13.408;2022-08-18T04:29:37;23.50;16.60
1413;DHT22;701;52.526;13.408;2022-08-18T04:32:03;23.50;16.50
1413;DHT22;701;52.526;13.408;2022-08-18T04:34:29;23.50;16.50
1413;DHT22;701;52.526;13.408;2022-08-18T04:36:55;23.60;16.60
1413;DHT22;701;52.526;13.408;2022-08-18T04:39:22;23.60;16.50
1413;DHT22;701;52.526;13.408;2022-08-18T04:41:49;23.60;16.40
1413;DHT22;701;52.526;13.408;2022-08-18T04:44:15;23.70;16.40
1413;DHT22;701;52.526;13.408;2022-08-18T04:46:49;23.70;16.20
1413;DHT22;701;52.526;13.408;2022-08-18T04:49:17;23.80;16.10
1413;DHT22;701;52.526;13.408;2022-08-18T04:51:48;23.80;15.90
1413;DHT22;701;52.526;13.408;2022-08-18T04:54:34;23.90;15.90
1413;DHT22;701;52.526;13.408;2022-08-18T04:57:07;23.90;15.70
1413;DHT22;701;52.526;13.408;2022-08-18T04:59:33;23.90;15.60
1413;DHT22;701;52.526;13.408;2022-08-18T05:02:00;24.00;15.60
1413;DHT22;701;52.526;13.408;2022-08-18T05:04:26;24.10;15.50
1413;DHT22;701;52.526;13.408;2022-08-18T05:06:53;24.10;15.30
1413;DHT22;701;52.526;13.408;2022-08-18T05:09:19;24.20;15.10
1413;DHT22;701;52.526;13.408;2022-08-18T05:11:45;24.30;15.20
1413;DHT22;701;52.526;13.408;2022-08-18T05:14:11;24.40;15.30
1413;DHT22;701;52.526;13.408;2022-08-18T05:16:37;24.50;15.00
1413;DHT22;701;52.526;13.408;2022-08-18T05:19:04;24.60;14.60
1413;DHT22;701;52.526;13.408;2022-08-18T05:21:30;24.70;14.40
1413;DHT22;701;52.526;13.408;2022-08-18T05:23:57;24.80;14.10
1413;DHT22;701;52.526;13.408;2022-08-18T05:26:23;24.90;13.90
1413;DHT22;701;52.526;13.408;2022-08-18T05:28:48;24.90;13.80
1413;DHT22;701;52.526;13.408;2022-08-18T05:31:17;25.00;13.60
1413;DHT22;701;52.526;13.408;2022-08-18T05:33:44;25.10;13.40
1413;DHT22;701;52.526;13.408;2022-08-18T05:36:39;25.10;12.90
1413;DHT22;701;52.526;13.408;2022-08-18T05:41:49;25.30;12.70
1413;DHT22;701;52.526;13.408;2022-08-18T05:44:21;25.30;12.40
1413;DHT22;701;52.526;13.408;2022-08-18T05:46:49;25.40;12.10
1413;DHT22;701;52.526;13.408;2022-08-18T05:49:17;25.40;12.00
1413;DHT22;701;52.526;13.408;2022-08-18T05:51:52;25.50;12.00
1413;DHT22;701;52.526;13.408;2022-08-18T05:54:20;25.60;12.10
1413;DHT22;701;52.526;13.408;2022-08-18T05:57:10;25.70;11.70
1413;DHT22;701;52.526;13.408;2022-08-18T05:59:39;25.80;11.60
1413;DHT22;701;52.526;13.408;2022-08-18T06:02:37;25.90;11.50
1413;DHT22;701;52.526;13.408;2022-08-18T06:05:09;26.00;11.00
1413;DHT22;701;52.526;13.408;2022-08-18T06:07:48;26.10;10.70
1413;DHT22;701;52.526;13.408;2022-08-18T06:10:15;26.20;10.50
1413;DHT22;701;52.526;13.408;2022-08-18T06:12:45;26.30;10.20
1413;DHT22;701;52.526;13.408;2022-08-18T06:18:13;26.70;9.20
1413;DHT22;701;52.526;13.408;2022-08-18T06:26:17;27.40;8.20
1413;DHT22;701;52.526;13.408;2022-08-18T06:29:09;27.60;7.60
1413;DHT22;701;52.526;13.408;2022-08-18T06:32:20;27.80;7.20
1413;DHT22;701;52.526;13.408;2022-08-18T06:35:18;28.10;6.60
1413;DHT22;701;52.526;13.408;2022-08-18T06:38:03;28.30;6.00
1413;DHT22;701;52.526;13.408;2022-08-18T06:41:03;28.40;5.60
1413;DHT22;701;52.526;13.408;2022-08-18T06:43:33;28.50;5.60
1413;DHT22;701;52.526;13.408;2022-08-18T06:46:13;28.50;5.70
1413;DHT22;701;52.526;13.408;2022-08-18T06:48:53;28.60;5.30
1413;DHT22;701;52.526;13.408;2022-08-18T06:51:22;28.60;5.00
1413;DHT22;701;52.526;13.408;2022-08-18T07:01:53;28.70;4.60
1413;DHT22;701;52.526;13.408;2022-08-18T07:05:14;28.80;4.70
1413;DHT22;701;52.526;13.408;2022-08-18T07:07:35;28.90;4.50
1413;DHT22;701;52.526;13.408;2022-08-18T07:10:27;29.10;4.30
1413;DHT22;701;52.526;13.408;2022-08-18T07:15:37;29.30;3.60
1413;DHT22;701;52.526;13.408;2022-08-18T07:18:05;29.40;3.60
1413;DHT22;701;52.526;13.408;2022-08-18T07:20:48;29.60;3.30
1413;DHT22;701;52.526;13.408;2022-08-18T07:23:40;29.70;2.80
1413;DHT22;701;52.526;13.408;2022-08-18T07:26:12;29.70;2.20
1413;DHT22;701;52.526;13.408;2022-08-18T07:28:45;29.70;2.30
1413;DHT22;701;52.526;13.408;2022-08-18T07:31:47;29.70;2.60
1413;DHT22;701;52.526;13.408;2022-08-18T07:34:31;29.70;2.70
1413;DHT22;701;52.526;13.408;2022-08-18T07:37:22;29.70;2.70
1413;DHT22;701;52.526;13.408;2022-08-18T07:40:02;29.70;2.70
1413;DHT22;701;52.526;13.408;2022-08-18T07:42:43;29.70;3.00
1413;DHT22;701;52.526;13.408;2022-08-18T07:45:22;29.80;2.70
1413;DHT22;701;52.526;13.408;2022-08-18T07:48:02;29.90;2.60
1413;DHT22;701;52.526;13.408;2022-08-18T07:50:34;30.00;2.40
1413;DHT22;701;52.526;13.408;2022-08-18T07:55:52;30.30;2.60
1413;DHT22;701;52.526;13.408;2022-08-18T07:58:41;30.40;2.20
1413;DHT22;701;52.526;13.408;2022-08-18T08:03:53;30.50;1.70
1413;DHT22;701;52.526;13.408;2022-08-18T08:06:40;30.50;1.90
1413;DHT22;701;52.526;13.408;2022-08-18T08:12:01;30.50;1.80
1413;DHT22;701;52.526;13.408;2022-08-18T08:25:00;31.20;1.00
1413;DHT22;701;52.526;13.408;2022-08-18T08:27:36;31.40;1.00
1413;DHT22;701;52.526;13.408;2022-08-18T08:30:11;31.50;1.00
1413;DHT22;701;52.526;13.408;2022-08-18T08:33:04;31.60;1.00
1413;DHT22;701;52.526;13.408;2022-08-18T08:35:44;31.80;1.00
1413;DHT22;701;52.526;13.408;2022-08-18T08:41:45;32.00;1.00
1413;DHT22;701;52.526;13.408;2022-08-18T08:44:28;32.10;1.00
1413;DHT22;701;52.526;13.408;2022-08-18T08:46:57;32.30;1.00
1413;DHT22;701;52.526;13.408;2022-08-18T08:49:41;32.40;1.00
1413;DHT22;701;52.526;13.408;2022-08-18T08:52:21;32.50;1.00
1413;DHT22;701;52.526;13.408;2022-08-18T08:54:54;32.60;1.00
1413;DHT22;701;52.526;13.408;2022-08-18T08:57:28;32.70;1.00
1413;DHT22;701;52.526;13.408;2022-08-18T08:59:57;32.90;1.00
1413;DHT22;701;52.526;13.408;2022-08-18T09:05:13;33.40;1.00
1413;DHT22;701;52.526;13.408;2022-08-18T09:18:32;34.50;1.00
1413;DHT22;701;52.526;13.408;2022-08-18T09:23:44;35.00;1.00
1413;DHT22;701;52.526;13.408;2022-08-18T09:26:24;35.20;1.00
1413;DHT22;701;52.526;13.408;2022-08-18T09:28:57;35.50;1.00
1413;DHT22;701;52.526;13.408;2022-08-18T09:31:25;35.90;1.00
1413;DHT22;701;52.526;13.408;2022-08-18T09:33:58;36.60;1.00
1413;DHT22;701;52.526;13.408;2022-08-18T09:39:38;38.70;1.00
1413;DHT22;701;52.526;13.408;2022-08-18T09:42:34;39.40;1.00
1413;DHT22;701;52.526;13.408;2022-08-18T09:45:38;39.70;1.00
1413;DHT22;701;52.526;13.408;2022-08-18T09:52:55;40.10;1.00
1413;DHT22;701;52.526;13.408;2022-08-18T10:00:39;39.60;1.00
1413;DHT22;701;52.526;13.408;2022-08-18T10:03:12;39.40;1.00
1413;DHT22;701;52.526;13.408;2022-08-18T10:05:40;39.70;1.00
1413;DHT22;701;52.526;13.408;2022-08-18T10:11:37;39.90;1.00
1413;DHT22;701;52.526;13.408;2022-08-18T10:14:29;40.20;1.00
1413;DHT22;701;52.526;13.408;2022-08-18T10:17:15;40.30;1.00
1413;DHT22;701;52.526;13.408;2022-08-18T10:19:58;40.10;1.00
1413;DHT22;701;52.526;13.408;2022-08-18T10:22:38;39.80;1.00
1413;DHT22;701;52.526;13.408;2022-08-18T10:25:06;39.70;1.00
1413;DHT22;701;52.526;13.408;2022-08-18T10:27:47;39.60;1.00
1413;DHT22;701;52.526;13.408;2022-08-18T10:32:55;39.50;1.00
1413;DHT22;701;52.526;13.408;2022-08-18T10:38:25;39.10;1.00
1413;DHT22;701;52.526;13.408;2022-08-18T10:41:06;38.90;1.00
1413;DHT22;701;52.526;13.408;2022-08-18T10:43:45;38.70;1.00
1413;DHT22;701;52.526;13.408;2022-08-18T10:46:18;38.70;1.00
1413;DHT22;701;52.526;13.408;2022-08-18T10:49:00;38.90;1.00
1413;DHT22;701;52.526;13.408;2022-08-18T10:51:56;39.10;1.00
1413;DHT22;701;52.526;13.408;2022-08-18T10:54:28;39.40;1.00
1413;DHT22;701;52.526;13.408;2022-08-18T10:57:15;39.50;1.00
1413;DHT22;701;52.526;13.408;2022-08-18T10:59:54;39.70;1.00
1413;DHT22;701;52.526;13.408;2022-08-18T11:05:10;39.30;1.00
1413;DHT22;701;52.526;13.408;2022-08-18T11:07:37;39.10;1.00
1413;DHT22;701;52.526;13.408;2022-08-18T11:10:35;39.00;1.00
1413;DHT22;701;52.526;13.408;2022-08-18T11:16:02;38.70;1.00
1413;DHT22;701;52.526;13.408;2022-08-18T11:18:43;38.50;1.00
1413;DHT22;701;52.526;13.408;2022-08-18T11:26:29;38.10;1.00
1413;DHT22;701;52.526;13.408;2022-08-18T11:28:56;38.00;1.00
1413;DHT22;701;52.526;13.408;2022-08-18T11:31:22;38.00;1.00
1413;DHT22;701;52.526;13.408;2022-08-18T11:33:49;37.80;1.00
1413;DHT22;701;52.526;13.408;2022-08-18T11:36:15;37.80;1.00
1413;DHT22;701;52.526;13.408;2022-08-18T11:38:55;37.60;1.00
1413;DHT22;701;52.526;13.408;2022-08-18T11:41:25;37.40;1.00
1413;DHT22;701;52.526;13.408;2022-08-18T11:43:57;37.30;1.00
1413;DHT22;701;52.526;13.408;2022-08-18T11:46:30;37.20;1.00
1413;DHT22;701;52.526;13.408;2022-08-18T11:48:56;37.10;1.00
1413;DHT22;701;52.526;13.408;2022-08-18T11:51:25;36.90;1.00
1413;DHT22;701;52.526;13.408;2022-08-18T11:56:37;36.50;1.00
1413;DHT22;701;52.526;13.408;2022-08-18T12:01:51;36.30;1.00
1413;DHT22;701;52.526;13.408;2022-08-18T12:04:38;36.20;1.00
1413;DHT22;701;52.526;13.408;2022-08-18T12:07:10;36.20;1.00
1413;DHT22;701;52.526;13.408;2022-08-18T12:12:18;36.10;1.00
1413;DHT22;701;52.526;13.408;2022-08-18T12:17:39;36.10;1.00
1413;DHT22;701;52.526;13.408;2022-08-18T12:20:07;36.20;1.00
1413;DHT22;701;52.526;13.408;2022-08-18T12:22:34;36.30;1.00
1413;DHT22;701;52.526;13.408;2022-08-18T12:25:02;36.40;1.00
1413;DHT22;701;52.526;13.408;2022-08-18T12:27:29;36.50;1.00
1413;DHT22;701;52.526;13.408;2022-08-18T12:29:56;36.60;1.00
1413;DHT22;701;52.526;13.408;2022-08-18T12:32:25;36.80;1.00
1413;DHT22;701;52.526;13.408;2022-08-18T12:34:51;36.90;1.00
1413;DHT22;701;52.526;13.408;2022-08-18T12:37:19;37.00;1.00
1413;DHT22;701;52.526;13.408;2022-08-18T12:39:46;37.00;1.00
1413;DHT22;701;52.526;13.408;2022-08-18T12:42:12;37.00;1.00
1413;DHT22;701;52.526;13.408;2022-08-18T12:44:38;37.00;1.00
1413;DHT22;701;52.526;13.408;2022-08-18T12:47:18;36.90;1.00
1413;DHT22;701;52.526;13.408;2022-08-18T12:49:45;36.80;1.00
1413;DHT22;701;52.526;13.408;2022-08-18T12:52:12;36.70;1.00
1413;DHT22;701;52.526;13.408;2022-08-18T12:54:38;36.60;1.00
1413;DHT22;701;52.526;13.408;2022-08-18T12:57:07;36.60;1.00
1413;DHT22;701;52.526;13.408;2022-08-18T12:59:34;36.60;1.00
1413;DHT22;701;52.526;13.408;2022-08-18T13:02:02;36.60;1.00
1413;DHT22;701;52.526;13.408;2022-08-18T13:04:28;36.70;1.00
1413;DHT22;701;52.526;13.408;2022-08-18T13:06:55;36.80;1.00
1413;DHT22;701;52.526;13.408;2022-08-18T13:09:22;36.90;1.00
1413;DHT22;701;52.526;13.408;2022-08-18T13:11:48;36.80;1.00
1413;DHT22;701;52.526;13.408;2022-08-18T13:14:15;36.80;1.00
1413;DHT22;701;52.526;13.408;2022-08-18T13:16:43;36.70;1.00
1413;DHT22;701;52.526;13.408;2022-08-18T13:19:12;36.60;1.00
1413;DHT22;701;52.526;13.408;2022-08-18T13:21:39;36.60;1.00
1413;DHT22;701;52.526;13.408;2022-08-18T13:24:05;36.50;1.00
1413;DHT22;701;52.526;13.408;2022-08-18T13:26:33;36.50;1.00
1413;DHT22;701;52.526;13.408;2022-08-18T13:29:01;36.50;1.00
1413;DHT22;701;52.526;13.408;2022-08-18T13:31:28;36.40;1.00
1413;DHT22;701;52.526;13.408;2022-08-18T13:33:54;36.40;1.00
1413;DHT22;701;52.526;13.408;2022-08-18T13:36:24;36.40;1.00
1413;DHT22;701;52.526;13.408;2022-08-18T13:38:51;36.30;1.00
1413;DHT22;701;52.526;13.408;2022-08-18T13:41:17;36.30;1.00
1413;DHT22;701;52.526;13.408;2022-08-18T13:43:44;36.40;1.00
1413;DHT22;701;52.526;13.408;2022-08-18T13:46:16;36.40;1.00
1413;DHT22;701;52.526;13.408;2022-08-18T13:48:43;36.60;1.00
1413;DHT22;701;52.526;13.408;2022-08-18T13:51:16;36.70;1.00
1413;DHT22;701;52.526;13.408;2022-08-18T13:53:44;36.90;1.00
1413;DHT22;701;52.526;13.408;2022-08-18T13:56:11;37.10;1.00
1413;DHT22;701;52.526;13.408;2022-08-18T13:58:36;37.10;1.00
1413;DHT22;701;52.526;13.408;2022-08-18T14:01:05;37.30;1.00
1413;DHT22;701;52.526;13.408;2022-08-18T14:03:36;37.30;1.00
1413;DHT22;701;52.526;13.408;2022-08-18T14:06:02;37.40;1.00
1413;DHT22;701;52.526;13.408;2022-08-18T14:08:29;37.40;1.00
1413;DHT22;701;52.526;13.408;2022-08-18T14:10:58;37.40;1.00
1413;DHT22;701;52.526;13.408;2022-08-18T14:13:26;37.50;1.00
1413;DHT22;701;52.526;13.408;2022-08-18T14:15:54;37.50;1.00
1413;DHT22;701;52.526;13.408;2022-08-18T14:18:22;37.50;1.00
1413;DHT22;701;52.526;13.408;2022-08-18T14:20:49;37.30;1.00
1413;DHT22;701;52.526;13.408;2022-08-18T14:23:33;37.30;1.00
1413;DHT22;701;52.526;13.408;2022-08-18T14:26:37;37.20;1.00
1413;DHT22;701;52.526;13.408;2022-08-18T14:29:16;37.20;1.00
1413;DHT22;701;52.526;13.408;2022-08-18T14:31:42;37.20;1.00
1413;DHT22;701;52.526;13.408;2022-08-18T14:34:08;37.20;1.00
1413;DHT22;701;52.526;13.408;2022-08-18T14:36:33;37.20;1.00
1413;DHT22;701;52.526;13.408;2022-08-18T14:39:00;37.30;1.00
1413;DHT22;701;52.526;13.408;2022-08-18T14:41:27;37.30;1.00
1413;DHT22;701;52.526;13.408;2022-08-18T14:43:53;37.30;1.00
1413;DHT22;701;52.526;13.408;2022-08-18T14:46:22;37.30;1.00
1413;DHT22;701;52.526;13.408;2022-08-18T14:48:47;37.40;1.00
1413;DHT22;701;52.526;13.408;2022-08-18T14:51:14;37.50;1.00
1413;DHT22;701;52.526;13.408;2022-08-18T14:53:40;37.50;1.00
1413;DHT22;701;52.526;13.408;2022-08-18T14:56:06;37.50;1.00
1413;DHT22;701;52.526;13.408;2022-08-18T14:58:33;37.40;1.00
1413;DHT22;701;52.526;13.408;2022-08-18T15:01:04;37.10;1.00
1413;DHT22;701;52.526;13.408;2022-08-18T15:03:33;36.80;1.00
1413;DHT22;701;52.526;13.408;2022-08-18T15:06:01;36.40;1.00
1413;DHT22;701;52.526;13.408;2022-08-18T15:08:27;36.00;1.00
1413;DHT22;701;52.526;13.408;2022-08-18T15:10:53;35.60;1.00
1413;DHT22;701;52.526;13.408;2022-08-18T15:13:19;35.40;1.00
1413;DHT22;701;52.526;13.408;2022-08-18T15:15:46;35.20;1.00
1413;DHT22;701;52.526;13.408;2022-08-18T15:18:11;35.00;1.00
1413;DHT22;701;52.526;13.408;2022-08-18T15:20:38;34.90;1.00
1413;DHT22;701;52.526;13.408;2022-08-18T15:23:24;34.80;1.00
1413;DHT22;701;52.526;13.408;2022-08-18T15:26:10;34.70;1.00
1413;DHT22;701;52.526;13.408;2022-08-18T15:28:36;34.50;1.00
1413;DHT22;701;52.526;13.408;2022-08-18T15:31:03;34.30;1.00
1413;DHT22;701;52.526;13.408;2022-08-18T15:33:29;34.10;1.00
1413;DHT22;701;52.526;13.408;2022-08-18T15:35:55;33.80;1.00
1413;DHT22;701;52.526;13.408;2022-08-18T15:38:23;33.60;1.00
1413;DHT22;701;52.526;13.408;2022-08-18T15:40:59;33.40;1.00
1413;DHT22;701;52.526;13.408;2022-08-18T15:43:29;33.30;1.00
1413;DHT22;701;52.526;13.408;2022-08-18T15:45:56;33.20;1.00
1413;DHT22;701;52.526;13.408;2022-08-18T15:48:23;33.20;1.00
1413;DHT22;701;52.526;13.408;2022-08-18T15:50:50;33.10;1.00
1413;DHT22;701;52.526;13.408;2022-08-18T15:53:18;33.00;1.00
1413;DHT22;701;52.526;13.408;2022-08-18T15:55:45;33.00;1.00
1413;DHT22;701;52.526;13.408;2022-08-18T15:58:11;33.00;1.00
1413;DHT22;701;52.526;13.408;2022-08-18T16:00:40;32.90;1.00
1413;DHT22;701;52.526;13.408;2022-08-18T16:03:08;32.90;1.00
1413;DHT22;701;52.526;13.408;2022-08-18T16:05:38;32.80;1.00
1413;DHT22;701;52.526;13.408;2022-08-18T16:08:06;32.80;1.00
1413;DHT22;701;52.526;13.408;2022-08-18T16:10:35;32.80;1.00
1413;DHT22;701;52.526;13.408;2022-08-18T16:13:04;32.70;1.00
1413;DHT22;701;52.526;13.408;2022-08-18T16:15:34;32.60;1.00
1413;DHT22;701;52.526;13.408;2022-08-18T16:18:00;32.60;1.00
1413;DHT22;701;52.526;13.408;2022-08-18T16:20:25;32.40;1.00
1413;DHT22;701;52.526;13.408;2022-08-18T16:22:53;32.20;1.00
1413;DHT22;701;52.526;13.408;2022-08-18T16:25:19;31.90;1.00
1413;DHT22;701;52.526;13.408;2022-08-18T16:27:45;31.60;1.00
1413;DHT22;701;52.526;13.408;2022-08-18T16:30:18;31.30;1.00
1413;DHT22;701;52.526;13.408;2022-08-18T16:32:44;31.00;1.00
1413;DHT22;701;52.526;13.408;2022-08-18T16:35:11;30.80;1.00
1413;DHT22;701;52.526;13.408;2022-08-18T16:37:37;30.50;1.00
1413;DHT22;701;52.526;13.408;2022-08-18T16:40:04;30.30;1.00
1413;DHT22;701;52.526;13.408;2022-08-18T16:42:30;30.00;1.00
1413;DHT22;701;52.526;13.408;2022-08-18T16:44:57;29.80;1.00
1413;DHT22;701;52.526;13.408;2022-08-18T16:47:23;29.70;2.20
1413;DHT22;701;52.526;13.408;2022-08-18T16:49:49;29.40;4.70
1413;DHT22;701;52.526;13.408;2022-08-18T16:52:16;28.90;10.60
1413;DHT22;701;52.526;13.408;2022-08-18T16:54:43;28.10;13.40
1413;DHT22;701;52.526;13.408;2022-08-18T16:57:09;27.00;16.00
1413;DHT22;701;52.526;13.408;2022-08-18T16:59:36;26.10;18.80
1413;DHT22;701;52.526;13.408;2022-08-18T17:02:21;25.40;21.90
1413;DHT22;701;52.526;13.408;2022-08-18T17:05:06;24.80;24.70
1413;DHT22;701;52.526;13.408;2022-08-18T17:07:33;24.40;26.20
1413;DHT22;701;52.526;13.408;2022-08-18T17:10:01;24.20;28.00
1413;DHT22;701;52.526;13.408;2022-08-18T17:12:28;24.10;28.80
1413;DHT22;701;52.526;13.408;2022-08-18T17:14:55;24.10;29.20
1413;DHT22;701;52.526;13.408;2022-08-18T17:17:21;24.10;29.80
1413;DHT22;701;52.526;13.408;2022-08-18T17:19:48;24.10;29.60
1413;DHT22;701;52.526;13.408;2022-08-18T17:22:16;24.10;29.40
1413;DHT22;701;52.526;13.408;2022-08-18T17:24:43;24.10;29.90
1413;DHT22;701;52.526;13.408;2022-08-18T17:32:41;24.20;29.80
1413;DHT22;701;52.526;13.408;2022-08-18T17:35:15;24.20;29.50
1413;DHT22;701;52.526;13.408;2022-08-18T17:40:38;24.20;29.00
1413;DHT22;701;52.526;13.408;2022-08-18T17:43:07;24.20;28.70
1413;DHT22;701;52.526;13.408;2022-08-18T17:45:34;24.20;28.90
1413;DHT22;701;52.526;13.408;2022-08-18T17:48:20;24.20;28.60
1413;DHT22;701;52.526;13.408;2022-08-18T17:50:56;24.20;28.50
1413;DHT22;701;52.526;13.408;2022-08-18T17:53:41;24.20;28.60
1413;DHT22;701;52.526;13.408;2022-08-18T17:56:17;24.20;28.30
1413;DHT22;701;52.526;13.408;2022-08-18T17:59:28;24.20;28.70
1413;DHT22;701;52.526;13.408;2022-08-18T18:02:27;24.20;27.90
1413;DHT22;701;52.526;13.408;2022-08-18T18:04:54;24.20;27.70
1413;DHT22;701;52.526;13.408;2022-08-18T18:07:27;24.20;28.50
1413;DHT22;701;52.526;13.408;2022-08-18T18:12:29;24.20;28.60
1413;DHT22;701;52.526;13.408;2022-08-18T18:14:59;24.20;28.60
1413;DHT22;701;52.526;13.408;2022-08-18T18:17:33;24.20;29.30
1413;DHT22;701;52.526;13.408;2022-08-18T18:20:37;24.20;29.40
1413;DHT22;701;52.526;13.408;2022-08-18T18:23:19;24.10;29.30
1413;DHT22;701;52.526;13.408;2022-08-18T18:25:46;24.20;29.50
1413;DHT22;701;52.526;13.408;2022-08-18T18:28:30;24.10;29.50
1413;DHT22;701;52.526;13.408;2022-08-18T18:30:57;24.20;30.00
1413;DHT22;701;52.526;13.408;2022-08-18T18:33:26;24.10;29.90
1413;DHT22;701;52.526;13.408;2022-08-18T18:35:57;24.10;30.00
1413;DHT22;701;52.526;13.408;2022-08-18T18:38:50;24.10;29.90